sensor_id;sensor_type;location;lat;lon;timestamp;P1;durP1;ratioP1;P2;durP2;ratioP2
24425;SDS011;12611;44.446;26.000;2023-08-08T00:02:24;0.40;;;0.40;;
24425;SDS011;12611;44.446;26.000;2023-08-08T00:04:54;0.45;;;0.40;;
24425;SDS011;12611;44.446;26.000;2023-08-08T00:07:22;0.20;;;0.20;;
24425;SDS011;12611;44.446;26.000;2023-08-08T00:09:50;0.50;;;0.50;;
24425;SDS011;12611;44.446;26.000;2023-08-08T00:12:19;0.20;;;0.20;;
24425;SDS011;12611;44.446;26.000;2023-08-08T00:14:48;0.20;;;0.20;;
24425;SDS011;12611;44.446;26.000;2023-08-08T00:17:17;0.93;;;0.55;;
24425;SDS011;12611;44.446;26.000;2023-08-08T00:19:46;0.20;;;0.20;;
24425;SDS011;12611;44.446;26.000;2023-08-08T00:22:15;0.20;;;0.20;;
24425;SDS011;12611;44.446;26.000;2023-08-08T00:24:43;0.50;;;0.40;;
24425;SDS011;12611;44.446;26.000;2023-08-08T00:27:12;0.20;;;0.20;;
24425;SDS011;12611;44.446;26.000;2023-08-08T00:29:40;0.32;;;0.32;;
24425;SDS011;12611;44.446;26.000;2023-08-08T00:32:09;0.20;;;0.20;;
24425;SDS011;12611;44.446;26.000;2023-08-08T00:34:37;0.20;;;0.20;;
24425;SDS011;12611;44.446;26.000;2023-08-08T00:37:07;0.20;;;0.20;;
24425;SDS011;12611;44.446;26.000;2023-08-08T00:39:35;0.73;;;0.73;;
24425;SDS011;12611;44.446;26.000;2023-08-08T00:42:03;1.40;;;0.75;;
24425;SDS011;12611;44.446;26.000;2023-08-08T00:44:32;0.28;;;0.28;;
24425;SDS011;12611;44.446;26.000;2023-08-08T00:47:00;0.30;;;0.30;;
24425;SDS011;12611;44.446;26.000;2023-08-08T00:49:29;0.20;;;0.20;;
24425;SDS011;12611;44.446;26.000;2023-08-08T00:51:57;0.93;;;0.40;;
24425;SDS011;12611;44.446;26.000;2023-08-08T00:54:28;0.43;;;0.40;;
24425;SDS011;12611;44.446;26.000;2023-08-08T00:56:57;15.77;;;0.60;;
24425;SDS011;12611;44.446;26.000;2023-08-08T00:59:25;0.40;;;0.40;;
24425;SDS011;12611;44.446;26.000;2023-08-08T01:01:55;0.55;;;0.35;;
24425;SDS011;12611;44.446;26.000;2023-08-08T01:04:25;0.73;;;0.63;;
24425;SDS011;12611;44.446;26.000;2023-08-08T01:06:55;2.08;;;0.80;;
24425;SDS011;12611;44.446;26.000;2023-08-08T01:09:32;0.30;;;0.30;;
24425;SDS011;12611;44.446;26.000;2023-08-08T01:12:04;1.10;;;0.75;;
24425;SDS011;12611;44.446;26.000;2023-08-08T01:14:35;5.35;;;0.70;;
24425;SDS011;12611;44.446;26.000;2023-08-08T01:17:06;1.13;;;0.47;;
24425;SDS011;12611;44.446;26.000;2023-08-08T01:19:35;0.77;;;0.77;;
24425;SDS011;12611;44.446;26.000;2023-08-08T01:22:04;0.57;;;0.57;;
24425;SDS011;12611;44.446;26.000;2023-08-08T01:24:38;0.20;;;0.20;;
24425;SDS011;12611;44.446;26.000;2023-08-08T01:27:06;0.22;;;0.22;;
24425;SDS011;12611;44.446;26.000;2023-08-08T01:29:35;0.38;;;0.38;;
24425;SDS011;12611;44.446;26.000;2023-08-08T01:32:05;0.20;;;0.20;;
24425;SDS011;12611;44.446;26.000;2023-08-08T01:34:35;0.68;;;0.68;;
24425;SDS011;12611;44.446;26.000;2023-08-08T01:37:06;2.92;;;1.10;;
24425;SDS011;12611;44.446;26.000;2023-08-08T01:39:40;0.35;;;0.35;;
24425;SDS011;12611;44.446;26.000;2023-08-08T01:42:10;0.50;;;0.50;;
24425;SDS011;12611;44.446;26.000;2023-08-08T01:44:40;1.38;;;0.95;;
24425;SDS011;12611;44.446;26.000;2023-08-08T01:47:09;0.30;;;0.20;;
24425;SDS011;12611;44.446;26.000;2023-08-08T01:49:38;0.20;;;0.20;;
24425;SDS011;12611;44.446;26.000;2023-08-08T01:52:06;0.20;;;0.20;;
24425;SDS011;12611;44.446;26.000;2023-08-08T01:54:35;0.30;;;0.30;;
24425;SDS011;12611;44.446;26.000;2023-08-08T01:57:06;0.30;;;0.30;;
24425;SDS011;12611;44.446;26.000;2023-08-08T01:59:35;0.30;;;0.30;;
24425;SDS011;12611;44.446;26.000;2023-08-08T02:02:03;0.35;;;0.30;;
24425;SDS011;12611;44.446;26.000;2023-08-08T02:04:33;0.28;;;0.28;;
24425;SDS011;12611;44.446;26.000;2023-08-08T02:07:02;0.20;;;0.20;;
24425;SDS011;12611;44.446;26.000;2023-08-08T02:09:31;0.20;;;0.20;;
24425;SDS011;12611;44.446;26.000;2023-08-08T02:11:59;0.30;;;0.30;;
24425;SDS011;12611;44.446;26.000;2023-08-08T02:14:30;0.38;;;0.38;;
24425;SDS011;12611;44.446;26.000;2023-08-08T02:16:59;0.40;;;0.40;;
24425;SDS011;12611;44.446;26.000;2023-08-08T02:19:28;0.30;;;0.30;;
24425;SDS011;12611;44.446;26.000;2023-08-08T02:22:00;0.20;;;0.20;;
24425;SDS011;12611;44.446;26.000;2023-08-08T02:24:29;0.30;;;0.30;;
24425;SDS011;12611;44.446;26.000;2023-08-08T02:26:58;0.20;;;0.20;;
24425;SDS011;12611;44.446;26.000;2023-08-08T02:29:26;2.67;;;0.30;;
24425;SDS011;12611;44.446;26.000;2023-08-08T02:31:56;0.20;;;0.20;;
24425;SDS011;12611;44.446;26.000;2023-08-08T02:34:25;0.30;;;0.30;;
24425;SDS011;12611;44.446;26.000;2023-08-08T02:36:54;0.30;;;0.30;;
24425;SDS011;12611;44.446;26.000;2023-08-08T02:39:22;0.52;;;0.45;;
24425;SDS011;12611;44.446;26.000;2023-08-08T02:41:51;0.30;;;0.30;;
24425;SDS011;12611;44.446;26.000;2023-08-08T02:44:19;1.48;;;0.63;;
24425;SDS011;12611;44.446;26.000;2023-08-08T02:46:49;0.30;;;0.30;;
24425;SDS011;12611;44.446;26.000;2023-08-08T02:49:19;0.20;;;0.20;;
24425;SDS011;12611;44.446;26.000;2023-08-08T02:51:47;0.22;;;0.22;;
24425;SDS011;12611;44.446;26.000;2023-08-08T02:54:16;0.20;;;0.20;;
24425;SDS011;12611;44.446;26.000;2023-08-08T02:56:45;2.53;;;0.77;;
24425;SDS011;12611;44.446;26.000;2023-08-08T02:59:13;0.20;;;0.20;;
24425;SDS011;12611;44.446;26.000;2023-08-08T03:01:42;0.22;;;0.22;;
24425;SDS011;12611;44.446;26.000;2023-08-08T03:04:11;0.25;;;0.25;;
24425;SDS011;12611;44.446;26.000;2023-08-08T03:06:41;0.20;;;0.20;;
24425;SDS011;12611;44.446;26.000;2023-08-08T03:09:18;0.20;;;0.20;;
24425;SDS011;12611;44.446;26.000;2023-08-08T03:11:47;0.30;;;0.30;;
24425;SDS011;12611;44.446;26.000;2023-08-08T03:14:15;0.30;;;0.30;;
24425;SDS011;12611;44.446;26.000;2023-08-08T03:16:44;0.35;;;0.35;;
24425;SDS011;12611;44.446;26.000;2023-08-08T03:19:12;3.70;;;0.50;;
24425;SDS011;12611;44.446;26.000;2023-08-08T03:21:42;0.30;;;0.30;;
24425;SDS011;12611;44.446;26.000;2023-08-08T03:24:11;0.30;;;0.30;;
24425;SDS011;12611;44.446;26.000;2023-08-08T03:26:53;0.30;;;0.30;;
24425;SDS011;12611;44.446;26.000;2023-08-08T03:29:22;0.40;;;0.40;;
24425;SDS011;12611;44.446;26.000;2023-08-08T03:31:50;0.20;;;0.20;;
24425;SDS011;12611;44.446;26.000;2023-08-08T03:34:19;0.22;;;0.22;;
24425;SDS011;12611;44.446;26.000;2023-08-08T03:36:49;0.20;;;0.20;;
24425;SDS011;12611;44.446;26.000;2023-08-08T03:39:17;0.22;;;0.20;;
24425;SDS011;12611;44.446;26.000;2023-08-08T03:41:46;0.30;;;0.30;;
24425;SDS011;12611;44.446;26.000;2023-08-08T03:44:15;0.50;;;0.47;;
24425;SDS011;12611;44.446;26.000;2023-08-08T03:46:43;0.30;;;0.30;;
24425;SDS011;12611;44.446;26.000;2023-08-08T03:49:12;0.20;;;0.20;;
24425;SDS011;12611;44.446;26.000;2023-08-08T03:51:41;0.20;;;0.20;;
24425;SDS011;12611;44.446;26.000;2023-08-08T03:54:11;0.38;;;0.30;;
24425;SDS011;12611;44.446;26.000;2023-08-08T03:56:39;0.30;;;0.30;;
24425;SDS011;12611;44.446;26.000;2023-08-08T03:59:08;0.45;;;0.28;;
24425;SDS011;12611;44.446;26.000;2023-08-08T04:01:39;0.17;;;0.17;;
24425;SDS011;12611;44.446;26.000;2023-08-08T04:04:07;0.30;;;0.30;;
24425;SDS011;12611;44.446;26.000;2023-08-08T04:06:36;0.32;;;0.32;;
24425;SDS011;12611;44.446;26.000;2023-08-08T04:09:05;0.68;;;0.55;;
24425;SDS011;12611;44.446;26.000;2023-08-08T04:11:35;1.20;;;0.45;;
24425;SDS011;12611;44.446;26.000;2023-08-08T04:14:04;0.35;;;0.30;;
24425;SDS011;12611;44.446;26.000;2023-08-08T04:16:32;1.27;;;0.73;;
24425;SDS011;12611;44.446;26.000;2023-08-08T04:19:01;1.10;;;0.82;;
24425;SDS011;12611;44.446;26.000;2023-08-08T04:21:30;0.20;;;0.20;;
24425;SDS011;12611;44.446;26.000;2023-08-08T04:23:59;0.43;;;0.43;;
24425;SDS011;12611;44.446;26.000;2023-08-08T04:26:27;0.32;;;0.32;;
24425;SDS011;12611;44.446;26.000;2023-08-08T04:28:57;0.85;;;0.65;;
24425;SDS011;12611;44.446;26.000;2023-08-08T04:31:26;0.57;;;0.50;;
24425;SDS011;12611;44.446;26.000;2023-08-08T04:33:55;0.30;;;0.30;;
24425;SDS011;12611;44.446;26.000;2023-08-08T04:36:27;0.65;;;0.40;;
24425;SDS011;12611;44.446;26.000;2023-08-08T04:38:56;0.60;;;0.60;;
24425;SDS011;12611;44.446;26.000;2023-08-08T04:41:25;0.73;;;0.40;;
24425;SDS011;12611;44.446;26.000;2023-08-08T04:43:53;0.30;;;0.30;;
24425;SDS011;12611;44.446;26.000;2023-08-08T04:46:23;0.30;;;0.30;;
24425;SDS011;12611;44.446;26.000;2023-08-08T04:48:52;0.32;;;0.30;;
24425;SDS011;12611;44.446;26.000;2023-08-08T04:51:21;0.82;;;0.82;;
24425;SDS011;12611;44.446;26.000;2023-08-08T04:53:50;0.40;;;0.40;;
24425;SDS011;12611;44.446;26.000;2023-08-08T04:56:18;0.50;;;0.50;;
24425;SDS011;12611;44.446;26.000;2023-08-08T04:58:46;0.40;;;0.40;;
24425;SDS011;12611;44.446;26.000;2023-08-08T05:01:15;0.70;;;0.70;;
24425;SDS011;12611;44.446;26.000;2023-08-08T05:03:48;0.47;;;0.47;;
24425;SDS011;12611;44.446;26.000;2023-08-08T05:06:20;0.30;;;0.30;;
24425;SDS011;12611;44.446;26.000;2023-08-08T05:08:49;0.65;;;0.65;;
24425;SDS011;12611;44.446;26.000;2023-08-08T05:11:19;0.50;;;0.50;;
24425;SDS011;12611;44.446;26.000;2023-08-08T05:13:47;0.73;;;0.63;;
24425;SDS011;12611;44.446;26.000;2023-08-08T05:16:16;3.13;;;0.95;;
24425;SDS011;12611;44.446;26.000;2023-08-08T05:18:45;0.30;;;0.30;;
24425;SDS011;12611;44.446;26.000;2023-08-08T05:21:15;0.28;;;0.28;;
24425;SDS011;12611;44.446;26.000;2023-08-08T05:23:44;0.85;;;0.63;;
24425;SDS011;12611;44.446;26.000;2023-08-08T05:26:13;0.63;;;0.63;;
24425;SDS011;12611;44.446;26.000;2023-08-08T05:28:42;0.43;;;0.43;;
24425;SDS011;12611;44.446;26.000;2023-08-08T05:31:13;0.55;;;0.55;;
24425;SDS011;12611;44.446;26.000;2023-08-08T05:33:41;1.08;;;0.70;;
24425;SDS011;12611;44.446;26.000;2023-08-08T05:36:11;0.35;;;0.32;;
24425;SDS011;12611;44.446;26.000;2023-08-08T05:38:40;2.20;;;1.10;;
24425;SDS011;12611;44.446;26.000;2023-08-08T05:41:08;1.02;;;0.80;;
24425;SDS011;12611;44.446;26.000;2023-08-08T05:43:37;0.30;;;0.30;;
24425;SDS011;12611;44.446;26.000;2023-08-08T05:46:05;3.80;;;1.45;;
24425;SDS011;12611;44.446;26.000;2023-08-08T05:48:34;0.80;;;0.70;;
24425;SDS011;12611;44.446;26.000;2023-08-08T05:51:02;3.20;;;1.00;;
24425;SDS011;12611;44.446;26.000;2023-08-08T05:53:33;1.05;;;0.60;;
24425;SDS011;12611;44.446;26.000;2023-08-08T05:56:01;0.73;;;0.57;;
24425;SDS011;12611;44.446;26.000;2023-08-08T05:58:30;0.73;;;0.65;;
24425;SDS011;12611;44.446;26.000;2023-08-08T06:00:59;0.85;;;0.85;;
24425;SDS011;12611;44.446;26.000;2023-08-08T06:03:27;1.20;;;0.95;;
24425;SDS011;12611;44.446;26.000;2023-08-08T06:05:56;0.50;;;0.50;;
24425;SDS011;12611;44.446;26.000;2023-08-08T06:08:24;1.30;;;1.05;;
24425;SDS011;12611;44.446;26.000;2023-08-08T06:10:54;0.90;;;0.65;;
24425;SDS011;12611;44.446;26.000;2023-08-08T06:13:22;1.30;;;1.00;;
24425;SDS011;12611;44.446;26.000;2023-08-08T06:15:51;0.90;;;0.60;;
24425;SDS011;12611;44.446;26.000;2023-08-08T06:18:19;0.22;;;0.22;;
24425;SDS011;12611;44.446;26.000;2023-08-08T06:20:48;0.82;;;0.55;;
24425;SDS011;12611;44.446;26.000;2023-08-08T06:23:16;0.93;;;0.90;;
24425;SDS011;12611;44.446;26.000;2023-08-08T06:25:45;0.82;;;0.52;;
24425;SDS011;12611;44.446;26.000;2023-08-08T06:28:14;0.95;;;0.60;;
24425;SDS011;12611;44.446;26.000;2023-08-08T06:30:43;0.50;;;0.50;;
24425;SDS011;12611;44.446;26.000;2023-08-08T06:33:11;0.43;;;0.43;;
24425;SDS011;12611;44.446;26.000;2023-08-08T06:35:41;2.63;;;1.23;;
24425;SDS011;12611;44.446;26.000;2023-08-08T06:38:12;0.65;;;0.50;;
24425;SDS011;12611;44.446;26.000;2023-08-08T06:40:40;0.80;;;0.77;;
24425;SDS011;12611;44.446;26.000;2023-08-08T06:43:09;0.38;;;0.32;;
24425;SDS011;12611;44.446;26.000;2023-08-08T06:45:39;1.10;;;1.00;;
24425;SDS011;12611;44.446;26.000;2023-08-08T06:48:07;0.45;;;0.43;;
24425;SDS011;12611;44.446;26.000;2023-08-08T06:50:37;2.97;;;0.50;;
24425;SDS011;12611;44.446;26.000;2023-08-08T06:53:05;1.00;;;0.90;;
24425;SDS011;12611;44.446;26.000;2023-08-08T06:55:34;0.73;;;0.73;;
24425;SDS011;12611;44.446;26.000;2023-08-08T06:58:03;0.40;;;0.40;;
24425;SDS011;12611;44.446;26.000;2023-08-08T07:00:31;0.20;;;0.20;;
24425;SDS011;12611;44.446;26.000;2023-08-08T07:03:02;1.38;;;0.85;;
24425;SDS011;12611;44.446;26.000;2023-08-08T07:05:30;2.70;;;0.80;;
24425;SDS011;12611;44.446;26.000;2023-08-08T07:07:59;2.17;;;0.95;;
24425;SDS011;12611;44.446;26.000;2023-08-08T07:10:28;1.08;;;0.55;;
24425;SDS011;12611;44.446;26.000;2023-08-08T07:12:57;1.13;;;0.70;;
24425;SDS011;12611;44.446;26.000;2023-08-08T07:15:25;1.70;;;0.75;;
24425;SDS011;12611;44.446;26.000;2023-08-08T07:17:54;1.05;;;0.90;;
24425;SDS011;12611;44.446;26.000;2023-08-08T07:20:24;0.80;;;0.55;;
24425;SDS011;12611;44.446;26.000;2023-08-08T07:22:53;1.13;;;1.08;;
24425;SDS011;12611;44.446;26.000;2023-08-08T07:25:23;1.40;;;1.13;;
24425;SDS011;12611;44.446;26.000;2023-08-08T07:27:52;2.67;;;1.05;;
24425;SDS011;12611;44.446;26.000;2023-08-08T07:30:21;1.40;;;0.80;;
24425;SDS011;12611;44.446;26.000;2023-08-08T07:32:52;1.17;;;1.05;;
24425;SDS011;12611;44.446;26.000;2023-08-08T07:35:21;1.20;;;1.10;;
24425;SDS011;12611;44.446;26.000;2023-08-08T07:37:51;1.98;;;0.88;;
24425;SDS011;12611;44.446;26.000;2023-08-08T07:40:20;2.45;;;1.40;;
24425;SDS011;12611;44.446;26.000;2023-08-08T07:42:49;1.20;;;1.05;;
24425;SDS011;12611;44.446;26.000;2023-08-08T07:45:18;0.43;;;0.43;;
24425;SDS011;12611;44.446;26.000;2023-08-08T07:47:46;1.20;;;0.90;;
24425;SDS011;12611;44.446;26.000;2023-08-08T07:50:15;2.80;;;0.77;;
24425;SDS011;12611;44.446;26.000;2023-08-08T07:52:43;1.45;;;0.80;;
24425;SDS011;12611;44.446;26.000;2023-08-08T07:55:13;0.95;;;0.88;;
24425;SDS011;12611;44.446;26.000;2023-08-08T07:57:42;0.80;;;0.80;;
24425;SDS011;12611;44.446;26.000;2023-08-08T08:00:11;4.95;;;1.33;;
24425;SDS011;12611;44.446;26.000;2023-08-08T08:02:41;0.93;;;0.85;;
24425;SDS011;12611;44.446;26.000;2023-08-08T08:05:11;15.15;;;1.13;;
24425;SDS011;12611;44.446;26.000;2023-08-08T08:07:40;0.65;;;0.52;;
24425;SDS011;12611;44.446;26.000;2023-08-08T08:13:21;1.23;;;1.10;;
24425;SDS011;12611;44.446;26.000;2023-08-08T08:15:50;0.50;;;0.50;;
24425;SDS011;12611;44.446;26.000;2023-08-08T08:18:20;2.05;;;1.05;;
24425;SDS011;12611;44.446;26.000;2023-08-08T08:20:48;1.85;;;1.15;;
24425;SDS011;12611;44.446;26.000;2023-08-08T08:23:17;1.65;;;1.55;;
24425;SDS011;12611;44.446;26.000;2023-08-08T08:25:45;1.52;;;1.23;;
24425;SDS011;12611;44.446;26.000;2023-08-08T08:28:15;4.43;;;1.00;;
24425;SDS011;12611;44.446;26.000;2023-08-08T08:30:45;1.23;;;1.13;;
24425;SDS011;12611;44.446;26.000;2023-08-08T08:33:14;1.20;;;0.75;;
24425;SDS011;12611;44.446;26.000;2023-08-08T08:35:42;2.10;;;1.42;;
24425;SDS011;12611;44.446;26.000;2023-08-08T08:38:12;1.40;;;1.00;;
24425;SDS011;12611;44.446;26.000;2023-08-08T08:40:41;2.17;;;1.63;;
24425;SDS011;12611;44.446;26.000;2023-08-08T08:43:12;1.52;;;1.17;;
24425;SDS011;12611;44.446;26.000;2023-08-08T08:45:41;1.30;;;1.17;;
24425;SDS011;12611;44.446;26.000;2023-08-08T08:48:13;2.22;;;1.33;;
24425;SDS011;12611;44.446;26.000;2023-08-08T08:50:45;1.38;;;0.75;;
24425;SDS011;12611;44.446;26.000;2023-08-08T08:53:16;0.73;;;0.63;;
24425;SDS011;12611;44.446;26.000;2023-08-08T08:55:45;1.80;;;1.50;;
24425;SDS011;12611;44.446;26.000;2023-08-08T08:58:14;0.50;;;0.50;;
24425;SDS011;12611;44.446;26.000;2023-08-08T09:00:44;0.60;;;0.60;;
24425;SDS011;12611;44.446;26.000;2023-08-08T09:03:15;1.42;;;1.00;;
24425;SDS011;12611;44.446;26.000;2023-08-08T09:05:46;1.00;;;0.70;;
24425;SDS011;12611;44.446;26.000;2023-08-08T09:08:15;1.05;;;0.80;;
24425;SDS011;12611;44.446;26.000;2023-08-08T09:10:45;1.65;;;0.93;;
24425;SDS011;12611;44.446;26.000;2023-08-08T09:13:13;1.17;;;1.02;;
24425;SDS011;12611;44.446;26.000;2023-08-08T09:15:42;0.65;;;0.52;;
24425;SDS011;12611;44.446;26.000;2023-08-08T09:18:10;0.70;;;0.70;;
24425;SDS011;12611;44.446;26.000;2023-08-08T09:20:40;0.63;;;0.60;;
24425;SDS011;12611;44.446;26.000;2023-08-08T09:23:14;0.95;;;0.73;;
24425;SDS011;12611;44.446;26.000;2023-08-08T09:25:43;0.60;;;0.60;;
24425;SDS011;12611;44.446;26.000;2023-08-08T09:28:11;1.77;;;1.17;;
24425;SDS011;12611;44.446;26.000;2023-08-08T09:30:40;8.88;;;1.77;;
24425;SDS011;12611;44.446;26.000;2023-08-08T09:33:09;0.77;;;0.77;;
24425;SDS011;12611;44.446;26.000;2023-08-08T09:35:41;24.65;;;1.38;;
24425;SDS011;12611;44.446;26.000;2023-08-08T09:38:09;1.02;;;0.93;;
24425;SDS011;12611;44.446;26.000;2023-08-08T09:40:41;0.77;;;0.65;;
24425;SDS011;12611;44.446;26.000;2023-08-08T09:43:11;1.17;;;0.68;;
24425;SDS011;12611;44.446;26.000;2023-08-08T09:45:39;1.05;;;0.95;;
24425;SDS011;12611;44.446;26.000;2023-08-08T09:48:09;0.45;;;0.45;;
24425;SDS011;12611;44.446;26.000;2023-08-08T09:50:38;0.88;;;0.57;;
24425;SDS011;12611;44.446;26.000;2023-08-08T09:53:09;0.82;;;0.57;;
24425;SDS011;12611;44.446;26.000;2023-08-08T09:55:39;0.82;;;0.70;;
24425;SDS011;12611;44.446;26.000;2023-08-08T09:58:07;0.30;;;0.30;;
24425;SDS011;12611;44.446;26.000;2023-08-08T10:00:36;0.75;;;0.75;;
24425;SDS011;12611;44.446;26.000;2023-08-08T10:03:06;0.60;;;0.40;;
24425;SDS011;12611;44.446;26.000;2023-08-08T10:05:35;0.30;;;0.30;;
24425;SDS011;12611;44.446;26.000;2023-08-08T10:08:06;0.20;;;0.20;;
24425;SDS011;12611;44.446;26.000;2023-08-08T10:10:35;0.20;;;0.20;;
24425;SDS011;12611;44.446;26.000;2023-08-08T10:13:05;0.20;;;0.20;;
24425;SDS011;12611;44.446;26.000;2023-08-08T10:15:36;0.10;;;0.10;;
24425;SDS011;12611;44.446;26.000;2023-08-08T10:18:05;0.20;;;0.20;;
24425;SDS011;12611;44.446;26.000;2023-08-08T10:20:35;0.20;;;0.20;;
24425;SDS011;12611;44.446;26.000;2023-08-08T10:23:06;0.20;;;0.20;;
24425;SDS011;12611;44.446;26.000;2023-08-08T10:25:34;0.28;;;0.28;;
24425;SDS011;12611;44.446;26.000;2023-08-08T10:28:04;0.20;;;0.20;;
24425;SDS011;12611;44.446;26.000;2023-08-08T10:30:56;5.28;;;0.90;;
24425;SDS011;12611;44.446;26.000;2023-08-08T10:33:38;0.32;;;0.32;;
24425;SDS011;12611;44.446;26.000;2023-08-08T10:36:08;0.28;;;0.20;;
24425;SDS011;12611;44.446;26.000;2023-08-08T10:38:42;0.20;;;0.20;;
24425;SDS011;12611;44.446;26.000;2023-08-08T10:41:13;0.20;;;0.20;;
24425;SDS011;12611;44.446;26.000;2023-08-08T10:43:48;0.35;;;0.20;;
24425;SDS011;12611;44.446;26.000;2023-08-08T10:46:25;0.10;;;0.10;;
24425;SDS011;12611;44.446;26.000;2023-08-08T10:48:56;0.30;;;0.30;;
24425;SDS011;12611;44.446;26.000;2023-08-08T10:52:02;0.10;;;0.10;;
24425;SDS011;12611;44.446;26.000;2023-08-08T10:54:37;0.20;;;0.20;;
24425;SDS011;12611;44.446;26.000;2023-08-08T10:57:14;0.20;;;0.20;;
24425;SDS011;12611;44.446;26.000;2023-08-08T10:59:50;0.10;;;0.10;;
24425;SDS011;12611;44.446;26.000;2023-08-08T11:02:39;0.77;;;0.57;;
24425;SDS011;12611;44.446;26.000;2023-08-08T11:05:09;0.30;;;0.30;;
24425;SDS011;12611;44.446;26.000;2023-08-08T11:07:58;0.20;;;0.20;;
24425;SDS011;12611;44.446;26.000;2023-08-08T11:10:35;0.38;;;0.38;;
24425;SDS011;12611;44.446;26.000;2023-08-08T11:13:05;0.10;;;0.10;;
24425;SDS011;12611;44.446;26.000;2023-08-08T11:15:38;0.20;;;0.20;;
24425;SDS011;12611;44.446;26.000;2023-08-08T11:18:09;0.20;;;0.20;;
24425;SDS011;12611;44.446;26.000;2023-08-08T11:20:39;0.20;;;0.20;;
24425;SDS011;12611;44.446;26.000;2023-08-08T11:23:08;0.20;;;0.20;;
24425;SDS011;12611;44.446;26.000;2023-08-08T11:25:42;0.25;;;0.25;;
24425;SDS011;12611;44.446;26.000;2023-08-08T11:28:12;0.25;;;0.25;;
24425;SDS011;12611;44.446;26.000;2023-08-08T11:31:06;0.20;;;0.20;;
24425;SDS011;12611;44.446;26.000;2023-08-08T11:33:35;0.20;;;0.20;;
24425;SDS011;12611;44.446;26.000;2023-08-08T11:36:06;0.20;;;0.20;;
24425;SDS011;12611;44.446;26.000;2023-08-08T11:38:35;0.30;;;0.30;;
24425;SDS011;12611;44.446;26.000;2023-08-08T11:41:08;0.20;;;0.20;;
24425;SDS011;12611;44.446;26.000;2023-08-08T11:43:39;0.20;;;0.20;;
24425;SDS011;12611;44.446;26.000;2023-08-08T11:46:08;2.90;;;0.40;;
24425;SDS011;12611;44.446;26.000;2023-08-08T11:48:37;0.15;;;0.15;;
24425;SDS011;12611;44.446;26.000;2023-08-08T11:51:06;0.10;;;0.10;;
24425;SDS011;12611;44.446;26.000;2023-08-08T11:53:36;0.30;;;0.30;;
24425;SDS011;12611;44.446;26.000;2023-08-08T11:56:17;0.20;;;0.20;;
24425;SDS011;12611;44.446;26.000;2023-08-08T11:58:46;0.20;;;0.20;;
24425;SDS011;12611;44.446;26.000;2023-08-08T12:01:19;0.35;;;0.22;;
24425;SDS011;12611;44.446;26.000;2023-08-08T12:03:48;0.20;;;0.20;;
24425;SDS011;12611;44.446;26.000;2023-08-08T12:06:17;0.10;;;0.10;;
24425;SDS011;12611;44.446;26.000;2023-08-08T12:08:46;0.55;;;0.55;;
24425;SDS011;12611;44.446;26.000;2023-08-08T12:11:16;0.25;;;0.25;;
24425;SDS011;12611;44.446;26.000;2023-08-08T12:13:51;0.20;;;0.20;;
24425;SDS011;12611;44.446;26.000;2023-08-08T12:16:27;0.20;;;0.20;;
24425;SDS011;12611;44.446;26.000;2023-08-08T12:19:00;0.20;;;0.20;;
24425;SDS011;12611;44.446;26.000;2023-08-08T12:21:29;1.33;;;0.90;;
24425;SDS011;12611;44.446;26.000;2023-08-08T12:23:59;0.15;;;0.15;;
24425;SDS011;12611;44.446;26.000;2023-08-08T12:26:31;0.10;;;0.10;;
24425;SDS011;12611;44.446;26.000;2023-08-08T12:29:00;0.10;;;0.10;;
24425;SDS011;12611;44.446;26.000;2023-08-08T12:31:29;0.20;;;0.20;;
24425;SDS011;12611;44.446;26.000;2023-08-08T12:33:58;0.20;;;0.20;;
24425;SDS011;12611;44.446;26.000;2023-08-08T12:36:26;0.13;;;0.13;;
24425;SDS011;12611;44.446;26.000;2023-08-08T12:38:55;0.10;;;0.10;;
24425;SDS011;12611;44.446;26.000;2023-08-08T12:41:23;0.10;;;0.10;;
24425;SDS011;12611;44.446;26.000;2023-08-08T12:43:53;0.28;;;0.28;;
24425;SDS011;12611;44.446;26.000;2023-08-08T12:46:22;0.10;;;0.10;;
24425;SDS011;12611;44.446;26.000;2023-08-08T12:48:50;0.10;;;0.10;;
24425;SDS011;12611;44.446;26.000;2023-08-08T12:51:19;0.20;;;0.20;;
24425;SDS011;12611;44.446;26.000;2023-08-08T12:53:48;0.20;;;0.20;;
24425;SDS011;12611;44.446;26.000;2023-08-08T12:56:17;0.10;;;0.10;;
24425;SDS011;12611;44.446;26.000;2023-08-08T12:58:46;0.65;;;0.65;;
24425;SDS011;12611;44.446;26.000;2023-08-08T13:01:15;0.20;;;0.20;;
24425;SDS011;12611;44.446;26.000;2023-08-08T13:03:44;0.15;;;0.15;;
24425;SDS011;12611;44.446;26.000;2023-08-08T13:06:22;0.10;;;0.10;;
24425;SDS011;12611;44.446;26.000;2023-08-08T13:08:50;0.10;;;0.10;;
24425;SDS011;12611;44.446;26.000;2023-08-08T13:11:19;0.20;;;0.20;;
24425;SDS011;12611;44.446;26.000;2023-08-08T13:13:48;0.20;;;0.20;;
24425;SDS011;12611;44.446;26.000;2023-08-08T13:16:18;0.10;;;0.10;;
24425;SDS011;12611;44.446;26.000;2023-08-08T13:18:47;0.17;;;0.17;;
24425;SDS011;12611;44.446;26.000;2023-08-08T13:21:16;0.10;;;0.10;;
24425;SDS011;12611;44.446;26.000;2023-08-08T13:23:45;0.20;;;0.20;;
24425;SDS011;12611;44.446;26.000;2023-08-08T13:26:13;0.20;;;0.20;;
24425;SDS011;12611;44.446;26.000;2023-08-08T13:28:44;0.20;;;0.20;;
24425;SDS011;12611;44.446;26.000;2023-08-08T13:31:12;0.20;;;0.20;;
24425;SDS011;12611;44.446;26.000;2023-08-08T13:33:43;0.20;;;0.20;;
24425;SDS011;12611;44.446;26.000;2023-08-08T13:36:12;0.10;;;0.10;;
24425;SDS011;12611;44.446;26.000;2023-08-08T13:38:40;0.20;;;0.20;;
24425;SDS011;12611;44.446;26.000;2023-08-08T13:41:11;0.15;;;0.15;;
24425;SDS011;12611;44.446;26.000;2023-08-08T13:43:40;0.20;;;0.20;;
24425;SDS011;12611;44.446;26.000;2023-08-08T13:46:09;0.20;;;0.20;;
24425;SDS011;12611;44.446;26.000;2023-08-08T13:48:37;0.22;;;0.22;;
24425;SDS011;12611;44.446;26.000;2023-08-08T13:51:08;0.20;;;0.20;;
24425;SDS011;12611;44.446;26.000;2023-08-08T13:53:36;0.13;;;0.13;;
24425;SDS011;12611;44.446;26.000;2023-08-08T13:56:05;0.17;;;0.17;;
24425;SDS011;12611;44.446;26.000;2023-08-08T13:58:35;0.28;;;0.28;;
24425;SDS011;12611;44.446;26.000;2023-08-08T14:01:03;0.25;;;0.25;;
24425;SDS011;12611;44.446;26.000;2023-08-08T14:03:32;1.20;;;0.43;;
24425;SDS011;12611;44.446;26.000;2023-08-08T14:06:01;0.10;;;0.10;;
24425;SDS011;12611;44.446;26.000;2023-08-08T14:08:32;0.10;;;0.10;;
24425;SDS011;12611;44.446;26.000;2023-08-08T14:11:00;0.20;;;0.20;;
24425;SDS011;12611;44.446;26.000;2023-08-08T14:13:29;0.20;;;0.20;;
24425;SDS011;12611;44.446;26.000;2023-08-08T14:15:58;0.95;;;0.55;;
24425;SDS011;12611;44.446;26.000;2023-08-08T14:18:27;0.20;;;0.20;;
24425;SDS011;12611;44.446;26.000;2023-08-08T14:20:56;0.10;;;0.10;;
24425;SDS011;12611;44.446;26.000;2023-08-08T14:23:24;0.13;;;0.13;;
24425;SDS011;12611;44.446;26.000;2023-08-08T14:25:54;0.90;;;0.50;;
24425;SDS011;12611;44.446;26.000;2023-08-08T14:28:23;0.20;;;0.20;;
24425;SDS011;12611;44.446;26.000;2023-08-08T14:30:54;0.20;;;0.20;;
24425;SDS011;12611;44.446;26.000;2023-08-08T14:33:23;0.52;;;0.45;;
24425;SDS011;12611;44.446;26.000;2023-08-08T14:35:51;0.10;;;0.10;;
24425;SDS011;12611;44.446;26.000;2023-08-08T14:38:23;0.20;;;0.20;;
24425;SDS011;12611;44.446;26.000;2023-08-08T14:40:52;0.10;;;0.10;;
24425;SDS011;12611;44.446;26.000;2023-08-08T14:43:22;0.20;;;0.20;;
24425;SDS011;12611;44.446;26.000;2023-08-08T14:45:50;0.20;;;0.20;;
24425;SDS011;12611;44.446;26.000;2023-08-08T14:48:19;0.20;;;0.20;;
24425;SDS011;12611;44.446;26.000;2023-08-08T14:50:48;0.20;;;0.20;;
24425;SDS011;12611;44.446;26.000;2023-08-08T14:53:16;0.20;;;0.20;;